Bramanville, New York
Current Conditions -  °F | °C
As of 5:35 PM on Sunday 23 Nov 2014 (Local Time) from KNY0 Reporting Station
Overcast Overcast  
Wind Chill: 44°   Ceiling: 8000
Heat Index: 44°   Visibility: 10mi
Dew Point: 36°   Wind: 3mph
Humidity: 73%   Direction: 50°NE
Pressure: 30.05"   Gusts: NA
Location:  42.7023°N, 74.392°W
Report Text: KNY0 232235Z AUTO 05003KT 10SM SCT046 OVC080 07/02 A3005 RMK AO2 T00670022
Loading
Personal Weather Stations






























Interactive Weather Map New forecast layout! Learn more

10-Day Weather Forecast

Advertisements
Track Severe Weather on mobile